sensor_id;sensor_type;location;lat;lon;timestamp;P1;durP1;ratioP1;P2;durP2;ratioP2
29026;SDS011;16120;48.608;9.092;2023-01-26T00:02:43;92.57;;;17.27;;
29026;SDS011;16120;48.608;9.092;2023-01-26T00:06:40;89.90;;;17.07;;
29026;SDS011;16120;48.608;9.092;2023-01-26T00:10:35;91.20;;;19.00;;
29026;SDS011;16120;48.608;9.092;2023-01-26T00:14:30;91.13;;;18.10;;
29026;SDS011;16120;48.608;9.092;2023-01-26T00:18:37;91.70;;;19.13;;
29026;SDS011;16120;48.608;9.092;2023-01-26T00:22:33;92.90;;;19.60;;
29026;SDS011;16120;48.608;9.092;2023-01-26T00:26:29;84.60;;;17.07;;
29026;SDS011;16120;48.608;9.092;2023-01-26T00:30:24;97.32;;;20.58;;
29026;SDS011;16120;48.608;9.092;2023-01-26T00:34:19;92.83;;;19.20;;
29026;SDS011;16120;48.608;9.092;2023-01-26T00:38:16;97.80;;;21.10;;
29026;SDS011;16120;48.608;9.092;2023-01-26T00:42:11;96.10;;;20.70;;
29026;SDS011;16120;48.608;9.092;2023-01-26T00:46:06;90.57;;;18.10;;
29026;SDS011;16120;48.608;9.092;2023-01-26T00:50:02;89.53;;;18.87;;
29026;SDS011;16120;48.608;9.092;2023-01-26T00:53:58;91.80;;;18.60;;
29026;SDS011;16120;48.608;9.092;2023-01-26T00:57:53;93.87;;;18.17;;
29026;SDS011;16120;48.608;9.092;2023-01-26T01:01:49;90.50;;;19.20;;
29026;SDS011;16120;48.608;9.092;2023-01-26T01:05:44;93.38;;;18.70;;
29026;SDS011;16120;48.608;9.092;2023-01-26T01:09:40;94.33;;;18.47;;
29026;SDS011;16120;48.608;9.092;2023-01-26T01:13:36;89.53;;;17.70;;
29026;SDS011;16120;48.608;9.092;2023-01-26T01:17:31;88.10;;;17.00;;
29026;SDS011;16120;48.608;9.092;2023-01-26T01:21:26;92.40;;;18.10;;
29026;SDS011;16120;48.608;9.092;2023-01-26T01:25:23;90.60;;;17.27;;
29026;SDS011;16120;48.608;9.092;2023-01-26T01:29:18;94.03;;;18.80;;
29026;SDS011;16120;48.608;9.092;2023-01-26T01:33:13;92.53;;;19.47;;
29026;SDS011;16120;48.608;9.092;2023-01-26T01:37:08;96.95;;;18.15;;
29026;SDS011;16120;48.608;9.092;2023-01-26T01:41:05;90.78;;;19.48;;
29026;SDS011;16120;48.608;9.092;2023-01-26T01:45:25;98.43;;;20.43;;
29026;SDS011;16120;48.608;9.092;2023-01-26T01:49:22;90.47;;;18.43;;
29026;SDS011;16120;48.608;9.092;2023-01-26T01:53:21;91.37;;;18.70;;
29026;SDS011;16120;48.608;9.092;2023-01-26T01:57:19;97.53;;;18.87;;
29026;SDS011;16120;48.608;9.092;2023-01-26T02:01:15;93.30;;;18.43;;
29026;SDS011;16120;48.608;9.092;2023-01-26T02:05:13;90.65;;;19.33;;
29026;SDS011;16120;48.608;9.092;2023-01-26T02:09:11;96.80;;;20.10;;
29026;SDS011;16120;48.608;9.092;2023-01-26T02:13:08;91.83;;;19.63;;
29026;SDS011;16120;48.608;9.092;2023-01-26T02:17:03;98.97;;;20.53;;
29026;SDS011;16120;48.608;9.092;2023-01-26T02:20:59;100.35;;;21.20;;
29026;SDS011;16120;48.608;9.092;2023-01-26T02:24:55;92.67;;;19.90;;
29026;SDS011;16120;48.608;9.092;2023-01-26T02:28:54;100.77;;;20.90;;
29026;SDS011;16120;48.608;9.092;2023-01-26T02:32:49;96.07;;;20.57;;
29026;SDS011;16120;48.608;9.092;2023-01-26T02:36:44;94.67;;;21.07;;
29026;SDS011;16120;48.608;9.092;2023-01-26T02:40:41;93.68;;;20.65;;
29026;SDS011;16120;48.608;9.092;2023-01-26T02:44:40;95.70;;;20.23;;
29026;SDS011;16120;48.608;9.092;2023-01-26T02:48:36;90.50;;;17.50;;
29026;SDS011;16120;48.608;9.092;2023-01-26T02:52:31;92.30;;;19.43;;
29026;SDS011;16120;48.608;9.092;2023-01-26T02:56:26;86.97;;;16.97;;
29026;SDS011;16120;48.608;9.092;2023-01-26T03:00:23;96.67;;;17.97;;
29026;SDS011;16120;48.608;9.092;2023-01-26T03:04:19;99.10;;;20.13;;
29026;SDS011;16120;48.608;9.092;2023-01-26T03:08:14;99.83;;;21.20;;
29026;SDS011;16120;48.608;9.092;2023-01-26T03:12:10;97.70;;;21.65;;
29026;SDS011;16120;48.608;9.092;2023-01-26T03:16:07;100.27;;;22.30;;
29026;SDS011;16120;48.608;9.092;2023-01-26T03:20:03;98.60;;;20.20;;
29026;SDS011;16120;48.608;9.092;2023-01-26T03:23:59;94.80;;;20.87;;
29026;SDS011;16120;48.608;9.092;2023-01-26T03:27:54;92.47;;;20.80;;
29026;SDS011;16120;48.608;9.092;2023-01-26T03:31:51;101.93;;;20.80;;
29026;SDS011;16120;48.608;9.092;2023-01-26T03:35:47;96.37;;;20.40;;
29026;SDS011;16120;48.608;9.092;2023-01-26T03:39:42;98.80;;;20.43;;
29026;SDS011;16120;48.608;9.092;2023-01-26T03:43:38;95.33;;;19.40;;
29026;SDS011;16120;48.608;9.092;2023-01-26T03:47:34;95.53;;;19.17;;
29026;SDS011;16120;48.608;9.092;2023-01-26T03:51:30;87.27;;;17.90;;
29026;SDS011;16120;48.608;9.092;2023-01-26T03:55:26;93.40;;;19.20;;
29026;SDS011;16120;48.608;9.092;2023-01-26T03:59:21;90.13;;;17.77;;
29026;SDS011;16120;48.608;9.092;2023-01-26T04:03:17;88.87;;;17.80;;
29026;SDS011;16120;48.608;9.092;2023-01-26T04:07:12;93.17;;;16.97;;
29026;SDS011;16120;48.608;9.092;2023-01-26T04:11:08;91.57;;;19.27;;
29026;SDS011;16120;48.608;9.092;2023-01-26T04:15:03;89.47;;;17.88;;
29026;SDS011;16120;48.608;9.092;2023-01-26T04:19:03;91.30;;;17.27;;
29026;SDS011;16120;48.608;9.092;2023-01-26T04:22:58;89.13;;;17.53;;
29026;SDS011;16120;48.608;9.092;2023-01-26T04:26:53;99.68;;;19.40;;
29026;SDS011;16120;48.608;9.092;2023-01-26T04:30:50;89.70;;;16.67;;
29026;SDS011;16120;48.608;9.092;2023-01-26T04:34:49;92.30;;;18.20;;
29026;SDS011;16120;48.608;9.092;2023-01-26T04:38:44;94.07;;;17.10;;
29026;SDS011;16120;48.608;9.092;2023-01-26T04:42:39;95.85;;;18.70;;
29026;SDS011;16120;48.608;9.092;2023-01-26T04:46:35;93.82;;;17.55;;
29026;SDS011;16120;48.608;9.092;2023-01-26T04:50:31;89.60;;;17.00;;
29026;SDS011;16120;48.608;9.092;2023-01-26T04:54:27;86.27;;;16.50;;
29026;SDS011;16120;48.608;9.092;2023-01-26T04:58:22;87.33;;;16.60;;
29026;SDS011;16120;48.608;9.092;2023-01-26T05:02:17;93.97;;;17.10;;
29026;SDS011;16120;48.608;9.092;2023-01-26T05:06:14;87.67;;;15.97;;
29026;SDS011;16120;48.608;9.092;2023-01-26T05:10:11;85.73;;;15.70;;
29026;SDS011;16120;48.608;9.092;2023-01-26T05:14:06;89.18;;;16.77;;
29026;SDS011;16120;48.608;9.092;2023-01-26T05:18:01;88.40;;;16.93;;
29026;SDS011;16120;48.608;9.092;2023-01-26T05:21:59;91.30;;;17.03;;
29026;SDS011;16120;48.608;9.092;2023-01-26T05:25:54;87.77;;;16.73;;
29026;SDS011;16120;48.608;9.092;2023-01-26T05:29:49;91.13;;;17.23;;
29026;SDS011;16120;48.608;9.092;2023-01-26T05:33:45;90.83;;;16.40;;
29026;SDS011;16120;48.608;9.092;2023-01-26T05:37:41;83.73;;;13.53;;
29026;SDS011;16120;48.608;9.092;2023-01-26T05:41:37;84.40;;;13.90;;
29026;SDS011;16120;48.608;9.092;2023-01-26T05:45:32;84.03;;;14.90;;
29026;SDS011;16120;48.608;9.092;2023-01-26T05:49:27;85.28;;;14.30;;
29026;SDS011;16120;48.608;9.092;2023-01-26T05:53:24;82.43;;;12.10;;
29026;SDS011;16120;48.608;9.092;2023-01-26T05:57:19;83.33;;;12.50;;
29026;SDS011;16120;48.608;9.092;2023-01-26T06:01:14;81.30;;;12.53;;
29026;SDS011;16120;48.608;9.092;2023-01-26T06:05:09;78.37;;;11.93;;
29026;SDS011;16120;48.608;9.092;2023-01-26T06:09:06;86.35;;;12.23;;
29026;SDS011;16120;48.608;9.092;2023-01-26T06:13:01;78.63;;;12.60;;
29026;SDS011;16120;48.608;9.092;2023-01-26T06:16:56;77.37;;;11.70;;
29026;SDS011;16120;48.608;9.092;2023-01-26T06:20:52;78.55;;;11.95;;
29026;SDS011;16120;48.608;9.092;2023-01-26T06:24:48;81.30;;;13.65;;
29026;SDS011;16120;48.608;9.092;2023-01-26T06:28:43;88.43;;;13.07;;
29026;SDS011;16120;48.608;9.092;2023-01-26T06:32:39;84.23;;;13.50;;
29026;SDS011;16120;48.608;9.092;2023-01-26T06:36:34;81.93;;;12.25;;
29026;SDS011;16120;48.608;9.092;2023-01-26T06:40:30;82.88;;;13.20;;
29026;SDS011;16120;48.608;9.092;2023-01-26T06:44:25;78.80;;;12.63;;
29026;SDS011;16120;48.608;9.092;2023-01-26T06:48:21;81.15;;;12.55;;
29026;SDS011;16120;48.608;9.092;2023-01-26T06:52:25;81.30;;;11.60;;
29026;SDS011;16120;48.608;9.092;2023-01-26T06:56:22;80.53;;;12.53;;
29026;SDS011;16120;48.608;9.092;2023-01-26T07:00:18;84.80;;;13.30;;
29026;SDS011;16120;48.608;9.092;2023-01-26T07:04:13;83.60;;;12.90;;
29026;SDS011;16120;48.608;9.092;2023-01-26T07:08:08;77.70;;;12.32;;
29026;SDS011;16120;48.608;9.092;2023-01-26T07:12:05;79.87;;;12.77;;
29026;SDS011;16120;48.608;9.092;2023-01-26T07:16:00;87.23;;;16.20;;
29026;SDS011;16120;48.608;9.092;2023-01-26T07:19:55;83.73;;;14.30;;
29026;SDS011;16120;48.608;9.092;2023-01-26T07:23:51;81.90;;;14.13;;
29026;SDS011;16120;48.608;9.092;2023-01-26T07:27:47;86.57;;;13.83;;
29026;SDS011;16120;48.608;9.092;2023-01-26T07:31:42;87.73;;;14.50;;
29026;SDS011;16120;48.608;9.092;2023-01-26T07:35:38;87.00;;;16.77;;
29026;SDS011;16120;48.608;9.092;2023-01-26T07:39:37;83.53;;;13.80;;
29026;SDS011;16120;48.608;9.092;2023-01-26T07:43:35;83.93;;;15.37;;
29026;SDS011;16120;48.608;9.092;2023-01-26T07:47:31;81.30;;;13.37;;
29026;SDS011;16120;48.608;9.092;2023-01-26T07:51:26;91.17;;;15.97;;
29026;SDS011;16120;48.608;9.092;2023-01-26T07:55:22;81.23;;;14.00;;
29026;SDS011;16120;48.608;9.092;2023-01-26T07:59:19;85.07;;;13.50;;
29026;SDS011;16120;48.608;9.092;2023-01-26T08:03:14;79.17;;;12.23;;
29026;SDS011;16120;48.608;9.092;2023-01-26T08:07:12;80.00;;;12.70;;
29026;SDS011;16120;48.608;9.092;2023-01-26T08:11:08;81.07;;;14.07;;
29026;SDS011;16120;48.608;9.092;2023-01-26T08:15:06;79.93;;;12.50;;
29026;SDS011;16120;48.608;9.092;2023-01-26T08:19:02;79.37;;;13.00;;
29026;SDS011;16120;48.608;9.092;2023-01-26T08:22:57;78.93;;;11.83;;
29026;SDS011;16120;48.608;9.092;2023-01-26T08:26:53;77.40;;;12.30;;
29026;SDS011;16120;48.608;9.092;2023-01-26T08:30:50;80.07;;;13.10;;
29026;SDS011;16120;48.608;9.092;2023-01-26T08:34:45;81.20;;;13.60;;
29026;SDS011;16120;48.608;9.092;2023-01-26T08:38:41;84.27;;;14.03;;
29026;SDS011;16120;48.608;9.092;2023-01-26T08:42:37;82.20;;;13.27;;
29026;SDS011;16120;48.608;9.092;2023-01-26T08:46:45;82.47;;;13.93;;
29026;SDS011;16120;48.608;9.092;2023-01-26T08:50:52;78.73;;;12.00;;
29026;SDS011;16120;48.608;9.092;2023-01-26T08:54:47;81.73;;;12.77;;
29026;SDS011;16120;48.608;9.092;2023-01-26T08:58:45;79.50;;;13.97;;
29026;SDS011;16120;48.608;9.092;2023-01-26T09:02:45;75.07;;;12.07;;
29026;SDS011;16120;48.608;9.092;2023-01-26T09:06:40;77.07;;;12.37;;
29026;SDS011;16120;48.608;9.092;2023-01-26T09:10:36;79.43;;;12.17;;
29026;SDS011;16120;48.608;9.092;2023-01-26T09:14:32;79.63;;;12.70;;
29026;SDS011;16120;48.608;9.092;2023-01-26T09:18:29;75.17;;;10.50;;
29026;SDS011;16120;48.608;9.092;2023-01-26T09:22:24;78.60;;;11.60;;
29026;SDS011;16120;48.608;9.092;2023-01-26T09:26:19;77.33;;;11.40;;
29026;SDS011;16120;48.608;9.092;2023-01-26T09:30:15;76.30;;;10.40;;
29026;SDS011;16120;48.608;9.092;2023-01-26T09:34:12;73.27;;;10.67;;
29026;SDS011;16120;48.608;9.092;2023-01-26T09:38:07;73.30;;;9.80;;
29026;SDS011;16120;48.608;9.092;2023-01-26T09:42:16;72.97;;;9.20;;
29026;SDS011;16120;48.608;9.092;2023-01-26T09:46:18;75.37;;;10.13;;
29026;SDS011;16120;48.608;9.092;2023-01-26T09:50:29;75.03;;;10.40;;
29026;SDS011;16120;48.608;9.092;2023-01-26T09:54:28;72.40;;;8.73;;
29026;SDS011;16120;48.608;9.092;2023-01-26T09:58:28;75.40;;;9.90;;
29026;SDS011;16120;48.608;9.092;2023-01-26T10:02:29;75.97;;;11.20;;
29026;SDS011;16120;48.608;9.092;2023-01-26T10:06:29;74.30;;;10.43;;
29026;SDS011;16120;48.608;9.092;2023-01-26T10:10:25;74.43;;;9.20;;
29026;SDS011;16120;48.608;9.092;2023-01-26T10:14:24;73.97;;;10.37;;
29026;SDS011;16120;48.608;9.092;2023-01-26T10:18:23;75.27;;;11.23;;
29026;SDS011;16120;48.608;9.092;2023-01-26T10:22:21;74.03;;;10.53;;
29026;SDS011;16120;48.608;9.092;2023-01-26T10:26:19;74.20;;;10.80;;
29026;SDS011;16120;48.608;9.092;2023-01-26T10:30:16;74.53;;;10.40;;
29026;SDS011;16120;48.608;9.092;2023-01-26T10:34:12;77.07;;;10.60;;
29026;SDS011;16120;48.608;9.092;2023-01-26T10:42:21;74.10;;;10.40;;
29026;SDS011;16120;48.608;9.092;2023-01-26T10:46:22;76.37;;;11.17;;
29026;SDS011;16120;48.608;9.092;2023-01-26T10:50:21;73.37;;;11.07;;
29026;SDS011;16120;48.608;9.092;2023-01-26T10:54:19;75.07;;;11.47;;
29026;SDS011;16120;48.608;9.092;2023-01-26T11:02:30;74.77;;;10.27;;
29026;SDS011;16120;48.608;9.092;2023-01-26T11:06:26;79.40;;;10.73;;
29026;SDS011;16120;48.608;9.092;2023-01-26T11:10:24;74.57;;;9.50;;
29026;SDS011;16120;48.608;9.092;2023-01-26T11:14:20;73.80;;;10.77;;
29026;SDS011;16120;48.608;9.092;2023-01-26T11:18:31;74.47;;;9.80;;
29026;SDS011;16120;48.608;9.092;2023-01-26T11:22:35;72.20;;;9.70;;
29026;SDS011;16120;48.608;9.092;2023-01-26T11:34:59;79.10;;;11.53;;
29026;SDS011;16120;48.608;9.092;2023-01-26T11:39:00;76.37;;;11.13;;
29026;SDS011;16120;48.608;9.092;2023-01-26T11:47:12;78.47;;;11.80;;
29026;SDS011;16120;48.608;9.092;2023-01-26T11:51:17;79.17;;;12.10;;
29026;SDS011;16120;48.608;9.092;2023-01-26T11:55:24;76.10;;;10.97;;
29026;SDS011;16120;48.608;9.092;2023-01-26T11:59:22;74.80;;;11.07;;
29026;SDS011;16120;48.608;9.092;2023-01-26T12:03:22;73.87;;;10.33;;
29026;SDS011;16120;48.608;9.092;2023-01-26T12:07:24;81.17;;;10.83;;
29026;SDS011;16120;48.608;9.092;2023-01-26T12:11:22;72.50;;;10.30;;
29026;SDS011;16120;48.608;9.092;2023-01-26T12:15:21;74.10;;;9.70;;
29026;SDS011;16120;48.608;9.092;2023-01-26T12:19:22;75.67;;;11.10;;
29026;SDS011;16120;48.608;9.092;2023-01-26T12:23:26;76.13;;;10.83;;
29026;SDS011;16120;48.608;9.092;2023-01-26T12:27:29;73.00;;;9.93;;
29026;SDS011;16120;48.608;9.092;2023-01-26T12:31:27;77.57;;;11.00;;
29026;SDS011;16120;48.608;9.092;2023-01-26T12:35:26;72.77;;;10.03;;
29026;SDS011;16120;48.608;9.092;2023-01-26T12:39:27;74.60;;;10.40;;
29026;SDS011;16120;48.608;9.092;2023-01-26T12:43:34;74.70;;;11.20;;
29026;SDS011;16120;48.608;9.092;2023-01-26T12:47:31;80.20;;;12.60;;
29026;SDS011;16120;48.608;9.092;2023-01-26T12:51:28;74.17;;;10.17;;
29026;SDS011;16120;48.608;9.092;2023-01-26T12:55:38;76.50;;;11.33;;
29026;SDS011;16120;48.608;9.092;2023-01-26T12:59:41;80.07;;;10.67;;
29026;SDS011;16120;48.608;9.092;2023-01-26T13:03:38;76.23;;;10.80;;
29026;SDS011;16120;48.608;9.092;2023-01-26T13:07:44;79.90;;;11.53;;
29026;SDS011;16120;48.608;9.092;2023-01-26T13:11:49;80.27;;;11.83;;
29026;SDS011;16120;48.608;9.092;2023-01-26T13:15:45;79.00;;;11.73;;
29026;SDS011;16120;48.608;9.092;2023-01-26T13:19:52;80.53;;;12.40;;
29026;SDS011;16120;48.608;9.092;2023-01-26T13:23:48;82.27;;;14.37;;
29026;SDS011;16120;48.608;9.092;2023-01-26T13:27:46;82.43;;;14.00;;
29026;SDS011;16120;48.608;9.092;2023-01-26T13:31:49;81.60;;;12.60;;
29026;SDS011;16120;48.608;9.092;2023-01-26T13:35:48;84.47;;;14.47;;
29026;SDS011;16120;48.608;9.092;2023-01-26T13:39:44;81.57;;;12.63;;
29026;SDS011;16120;48.608;9.092;2023-01-26T13:43:45;82.87;;;11.83;;
29026;SDS011;16120;48.608;9.092;2023-01-26T13:47:46;76.87;;;11.27;;
29026;SDS011;16120;48.608;9.092;2023-01-26T13:51:43;77.97;;;11.53;;
29026;SDS011;16120;48.608;9.092;2023-01-26T13:55:39;77.37;;;11.50;;
29026;SDS011;16120;48.608;9.092;2023-01-26T13:59:46;75.67;;;11.30;;
29026;SDS011;16120;48.608;9.092;2023-01-26T14:03:43;78.97;;;12.30;;
29026;SDS011;16120;48.608;9.092;2023-01-26T14:07:38;76.00;;;10.97;;
29026;SDS011;16120;48.608;9.092;2023-01-26T14:11:40;80.23;;;11.67;;
29026;SDS011;16120;48.608;9.092;2023-01-26T14:15:39;79.70;;;12.13;;
29026;SDS011;16120;48.608;9.092;2023-01-26T14:19:41;75.47;;;10.27;;
29026;SDS011;16120;48.608;9.092;2023-01-26T14:23:41;78.87;;;11.00;;
29026;SDS011;16120;48.608;9.092;2023-01-26T14:27:38;75.70;;;10.20;;
29026;SDS011;16120;48.608;9.092;2023-01-26T14:44:15;78.77;;;11.40;;
29026;SDS011;16120;48.608;9.092;2023-01-26T14:48:28;79.30;;;11.73;;
29026;SDS011;16120;48.608;9.092;2023-01-26T14:52:43;77.60;;;12.00;;
29026;SDS011;16120;48.608;9.092;2023-01-26T14:56:46;77.37;;;12.70;;
29026;SDS011;16120;48.608;9.092;2023-01-26T15:25:55;80.57;;;11.80;;
29026;SDS011;16120;48.608;9.092;2023-01-26T15:29:57;79.70;;;12.70;;
29026;SDS011;16120;48.608;9.092;2023-01-26T15:33:53;81.43;;;13.73;;
29026;SDS011;16120;48.608;9.092;2023-01-26T15:37:49;91.10;;;15.30;;
29026;SDS011;16120;48.608;9.092;2023-01-26T15:54:21;84.60;;;12.60;;
29026;SDS011;16120;48.608;9.092;2023-01-26T15:58:34;80.03;;;13.67;;
29026;SDS011;16120;48.608;9.092;2023-01-26T16:02:37;82.80;;;13.50;;
29026;SDS011;16120;48.608;9.092;2023-01-26T16:32:05;83.50;;;12.67;;
29026;SDS011;16120;48.608;9.092;2023-01-26T16:36:09;77.63;;;12.70;;
29026;SDS011;16120;48.608;9.092;2023-01-26T16:40:10;79.00;;;13.20;;
29026;SDS011;16120;48.608;9.092;2023-01-26T16:44:13;85.40;;;13.20;;
29026;SDS011;16120;48.608;9.092;2023-01-26T16:48:23;83.70;;;12.70;;
29026;SDS011;16120;48.608;9.092;2023-01-26T16:52:42;79.97;;;13.50;;
29026;SDS011;16120;48.608;9.092;2023-01-26T16:56:37;82.57;;;13.43;;
29026;SDS011;16120;48.608;9.092;2023-01-26T17:00:33;81.50;;;13.03;;
29026;SDS011;16120;48.608;9.092;2023-01-26T17:04:32;81.30;;;13.03;;
29026;SDS011;16120;48.608;9.092;2023-01-26T17:08:31;83.27;;;13.57;;
29026;SDS011;16120;48.608;9.092;2023-01-26T17:12:30;78.70;;;13.40;;
29026;SDS011;16120;48.608;9.092;2023-01-26T17:16:28;82.93;;;13.20;;
29026;SDS011;16120;48.608;9.092;2023-01-26T17:20:25;88.40;;;14.63;;
29026;SDS011;16120;48.608;9.092;2023-01-26T17:28:44;81.30;;;14.40;;
29026;SDS011;16120;48.608;9.092;2023-01-26T17:33:00;82.33;;;15.50;;
29026;SDS011;16120;48.608;9.092;2023-01-26T17:36:57;83.30;;;14.60;;
29026;SDS011;16120;48.608;9.092;2023-01-26T17:40:57;89.20;;;16.63;;
29026;SDS011;16120;48.608;9.092;2023-01-26T17:49:06;87.53;;;18.40;;
29026;SDS011;16120;48.608;9.092;2023-01-26T17:53:04;86.37;;;17.10;;
29026;SDS011;16120;48.608;9.092;2023-01-26T17:57:00;84.43;;;16.03;;
29026;SDS011;16120;48.608;9.092;2023-01-26T18:01:13;91.80;;;16.37;;
29026;SDS011;16120;48.608;9.092;2023-01-26T18:05:10;88.03;;;17.07;;
29026;SDS011;16120;48.608;9.092;2023-01-26T18:09:09;94.53;;;19.07;;
29026;SDS011;16120;48.608;9.092;2023-01-26T18:13:05;89.20;;;17.70;;
29026;SDS011;16120;48.608;9.092;2023-01-26T18:21:23;87.37;;;16.60;;
29026;SDS011;16120;48.608;9.092;2023-01-26T18:29:31;93.27;;;18.07;;
29026;SDS011;16120;48.608;9.092;2023-01-26T18:33:29;88.23;;;16.53;;
29026;SDS011;16120;48.608;9.092;2023-01-26T18:37:25;84.80;;;15.83;;
29026;SDS011;16120;48.608;9.092;2023-01-26T18:41:21;82.90;;;14.20;;
29026;SDS011;16120;48.608;9.092;2023-01-26T18:45:17;87.73;;;16.13;;
29026;SDS011;16120;48.608;9.092;2023-01-26T18:49:13;87.17;;;17.67;;
29026;SDS011;16120;48.608;9.092;2023-01-26T18:53:08;89.37;;;17.30;;
29026;SDS011;16120;48.608;9.092;2023-01-26T18:57:03;86.78;;;15.90;;
29026;SDS011;16120;48.608;9.092;2023-01-26T19:01:00;80.70;;;13.10;;
29026;SDS011;16120;48.608;9.092;2023-01-26T19:04:55;79.20;;;11.43;;
29026;SDS011;16120;48.608;9.092;2023-01-26T19:08:51;77.47;;;11.50;;
29026;SDS011;16120;48.608;9.092;2023-01-26T19:12:47;74.80;;;10.90;;
29026;SDS011;16120;48.608;9.092;2023-01-26T19:16:44;74.53;;;10.00;;
29026;SDS011;16120;48.608;9.092;2023-01-26T19:20:39;70.73;;;8.90;;
29026;SDS011;16120;48.608;9.092;2023-01-26T19:24:34;70.65;;;9.73;;
29026;SDS011;16120;48.608;9.092;2023-01-26T19:28:29;72.53;;;10.47;;
29026;SDS011;16120;48.608;9.092;2023-01-26T19:32:26;71.33;;;10.03;;
29026;SDS011;16120;48.608;9.092;2023-01-26T19:36:21;74.80;;;11.37;;
29026;SDS011;16120;48.608;9.092;2023-01-26T19:40:17;78.03;;;13.00;;
29026;SDS011;16120;48.608;9.092;2023-01-26T19:44:12;76.10;;;12.70;;
29026;SDS011;16120;48.608;9.092;2023-01-26T19:48:09;76.73;;;12.30;;
29026;SDS011;16120;48.608;9.092;2023-01-26T19:52:04;74.33;;;13.13;;
29026;SDS011;16120;48.608;9.092;2023-01-26T19:56:03;76.97;;;13.40;;
29026;SDS011;16120;48.608;9.092;2023-01-26T19:59:58;76.13;;;13.10;;
29026;SDS011;16120;48.608;9.092;2023-01-26T20:03:55;76.53;;;13.43;;
29026;SDS011;16120;48.608;9.092;2023-01-26T20:07:51;78.50;;;11.63;;
29026;SDS011;16120;48.608;9.092;2023-01-26T20:11:47;75.90;;;12.87;;
29026;SDS011;16120;48.608;9.092;2023-01-26T20:15:42;81.07;;;15.00;;
29026;SDS011;16120;48.608;9.092;2023-01-26T20:19:39;78.07;;;13.67;;
29026;SDS011;16120;48.608;9.092;2023-01-26T20:23:34;80.03;;;14.10;;
29026;SDS011;16120;48.608;9.092;2023-01-26T20:27:29;75.07;;;12.07;;
29026;SDS011;16120;48.608;9.092;2023-01-26T20:31:25;80.30;;;12.80;;
29026;SDS011;16120;48.608;9.092;2023-01-26T20:35:22;80.57;;;14.37;;
29026;SDS011;16120;48.608;9.092;2023-01-26T20:39:20;82.77;;;13.27;;
29026;SDS011;16120;48.608;9.092;2023-01-26T20:43:15;73.87;;;12.23;;
29026;SDS011;16120;48.608;9.092;2023-01-26T20:47:10;79.73;;;13.20;;
29026;SDS011;16120;48.608;9.092;2023-01-26T20:51:11;79.23;;;12.67;;
29026;SDS011;16120;48.608;9.092;2023-01-26T20:55:07;80.63;;;12.80;;
29026;SDS011;16120;48.608;9.092;2023-01-26T20:59:03;81.67;;;14.93;;
29026;SDS011;16120;48.608;9.092;2023-01-26T21:02:58;80.03;;;14.07;;
29026;SDS011;16120;48.608;9.092;2023-01-26T21:06:55;84.20;;;14.30;;
29026;SDS011;16120;48.608;9.092;2023-01-26T21:10:50;79.37;;;13.37;;
29026;SDS011;16120;48.608;9.092;2023-01-26T21:14:45;81.30;;;14.90;;
29026;SDS011;16120;48.608;9.092;2023-01-26T21:18:41;79.50;;;14.40;;
29026;SDS011;16120;48.608;9.092;2023-01-26T21:22:38;79.73;;;13.73;;
29026;SDS011;16120;48.608;9.092;2023-01-26T21:26:33;82.00;;;15.10;;
29026;SDS011;16120;48.608;9.092;2023-01-26T21:30:28;77.70;;;13.03;;
29026;SDS011;16120;48.608;9.092;2023-01-26T21:34:23;78.00;;;14.00;;
29026;SDS011;16120;48.608;9.092;2023-01-26T21:50:33;78.20;;;14.10;;
29026;SDS011;16120;48.608;9.092;2023-01-26T21:54:28;81.00;;;14.47;;
29026;SDS011;16120;48.608;9.092;2023-01-26T21:58:23;82.70;;;15.03;;
29026;SDS011;16120;48.608;9.092;2023-01-26T22:02:19;79.90;;;14.60;;
29026;SDS011;16120;48.608;9.092;2023-01-26T22:06:15;78.13;;;14.00;;
29026;SDS011;16120;48.608;9.092;2023-01-26T22:10:10;78.93;;;13.73;;
29026;SDS011;16120;48.608;9.092;2023-01-26T22:14:05;75.90;;;12.30;;
29026;SDS011;16120;48.608;9.092;2023-01-26T22:18:01;80.75;;;15.57;;
29026;SDS011;16120;48.608;9.092;2023-01-26T22:21:57;76.90;;;13.47;;
29026;SDS011;16120;48.608;9.092;2023-01-26T22:25:52;83.60;;;13.90;;
29026;SDS011;16120;48.608;9.092;2023-01-26T22:29:47;82.13;;;14.33;;
29026;SDS011;16120;48.608;9.092;2023-01-26T22:33:43;79.57;;;14.37;;
29026;SDS011;16120;48.608;9.092;2023-01-26T22:37:39;81.20;;;15.73;;
29026;SDS011;16120;48.608;9.092;2023-01-26T22:41:34;82.43;;;15.67;;
29026;SDS011;16120;48.608;9.092;2023-01-26T22:45:30;83.07;;;16.33;;
29026;SDS011;16120;48.608;9.092;2023-01-26T22:49:25;85.83;;;17.17;;
29026;SDS011;16120;48.608;9.092;2023-01-26T22:53:21;84.30;;;17.57;;
29026;SDS011;16120;48.608;9.092;2023-01-26T22:57:16;84.57;;;16.37;;
29026;SDS011;16120;48.608;9.092;2023-01-26T23:01:12;84.45;;;16.75;;
29026;SDS011;16120;48.608;9.092;2023-01-26T23:05:08;80.83;;;16.17;;
29026;SDS011;16120;48.608;9.092;2023-01-26T23:09:04;86.20;;;16.70;;
29026;SDS011;16120;48.608;9.092;2023-01-26T23:12:59;89.60;;;17.10;;
29026;SDS011;16120;48.608;9.092;2023-01-26T23:16:55;85.40;;;16.17;;
29026;SDS011;16120;48.608;9.092;2023-01-26T23:20:50;86.53;;;16.73;;
29026;SDS011;16120;48.608;9.092;2023-01-26T23:24:46;82.47;;;16.40;;
29026;SDS011;16120;48.608;9.092;2023-01-26T23:28:42;86.23;;;16.10;;
29026;SDS011;16120;48.608;9.092;2023-01-26T23:32:37;84.53;;;17.07;;
29026;SDS011;16120;48.608;9.092;2023-01-26T23:36:33;95.67;;;21.20;;
29026;SDS011;16120;48.608;9.092;2023-01-26T23:40:29;91.57;;;20.63;;
29026;SDS011;16120;48.608;9.092;2023-01-26T23:44:24;95.03;;;22.43;;
29026;SDS011;16120;48.608;9.092;2023-01-26T23:48:19;95.10;;;19.17;;
29026;SDS011;16120;48.608;9.092;2023-01-26T23:52:15;92.07;;;19.43;;
29026;SDS011;16120;48.608;9.092;2023-01-26T23:56:13;91.47;;;20.00;;
